Terminal Aerodrome Forecast
Issued by NWS Cleveland, OH

Home | Current Version | Previous Version | Graphics & Text | Print | Product List | Glossary On
Versions: 1 2 3 4 5 6 7 8 9 10 11 12 13 14 15
000
FTUS41 KCLE 301700
TAFCAK
TAF
KCAK 301731Z 3018/0118 36010KT P6SM BKN025 BKN050 OVC250
      TEMPO 3018/3022 SCT025 OVC050
     FM010000 01007KT 4SM -SHRA BKN007 OVC015
     FM010800 01006KT P6SM BKN030
     FM011200 01009KT P6SM SCT060=

USA.gov is the U.S. government's official web portal to all federal, state and local government web resources and services.